WAT3650 YPAD-YBAS
Flight info
| Callsign | WAT3650 |
|---|---|
| Flight time | 1h 58m |
| Altitude | 36000 |
| Route | AREPA J58 WHA J251 SADEL |
| Aircraft | MD83/M-SDFGIRWY/S |
Departure
| Time | 2026-05-06 03:04 |
|---|---|
| Airport | Adelaide International Airport (YPAD) |
Arrival
| Time | 2026-05-06 05:02 |
|---|---|
| Airport | Alice Springs Airport (YBAS) |
| Time | Latitude | Longitude | Altitude | Speed | Heading |
|---|---|---|---|---|---|
| 2026-05-06 02:24 | -34.93752 | 138.54101 | 28 ft | 0 kts | 322° |
| 2026-05-06 02:53 | -34.93754 | 138.54102 | 55 ft | 3 kts | 322° |
| 2026-05-06 02:53 | -34.93772 | 138.54119 | 27 ft | 4 kts | 316° |
| 2026-05-06 02:53 | -34.93788 | 138.54144 | 27 ft | 4 kts | 299° |
| 2026-05-06 02:54 | -34.93799 | 138.54173 | 26 ft | 4 kts | 289° |
| 2026-05-06 02:54 | -34.93803 | 138.54186 | 26 ft | 0 kts | 290° |
| 2026-05-06 03:00 | -34.93803 | 138.54179 | 26 ft | 1 kts | 269° |
| 2026-05-06 03:00 | -34.93805 | 138.54173 | 26 ft | 1 kts | 241° |
| 2026-05-06 03:00 | -34.93809 | 138.54167 | 26 ft | 1 kts | 232° |
| 2026-05-06 03:00 | -34.93819 | 138.54156 | 26 ft | 2 kts | 220° |
| 2026-05-06 03:01 | -34.93834 | 138.54140 | 26 ft | 3 kts | 220° |
| 2026-05-06 03:01 | -34.93855 | 138.54129 | 27 ft | 3 kts | 191° |
| 2026-05-06 03:01 | -34.93881 | 138.54132 | 27 ft | 4 kts | 164° |
| 2026-05-06 03:01 | -34.93908 | 138.54153 | 27 ft | 5 kts | 139° |
| 2026-05-06 03:02 | -34.93936 | 138.54182 | 28 ft | 5 kts | 139° |
| 2026-05-06 03:02 | -34.93964 | 138.54211 | 28 ft | 5 kts | 140° |
| 2026-05-06 03:02 | -34.93992 | 138.54240 | 29 ft | 6 kts | 140° |
| 2026-05-06 03:02 | -34.94024 | 138.54272 | 29 ft | 7 kts | 141° |
| 2026-05-06 03:03 | -34.94064 | 138.54299 | 29 ft | 6 kts | 185° |
| 2026-05-06 03:03 | -34.94099 | 138.54273 | 30 ft | 9 kts | 225° |
| 2026-05-06 03:03 | -34.94235 | 138.54079 | 28 ft | 58 kts | 229° |
| 2026-05-06 03:03 | -34.94475 | 138.53731 | 23 ft | 103 kts | 229° |
| 2026-05-06 03:04 | -34.95296 | 138.52541 | 191 ft | 163 kts | 231° |
| 2026-05-06 03:04 | -34.96096 | 138.51493 | 894 ft | 167 kts | 228° |
| 2026-05-06 03:04 | -34.96880 | 138.50490 | 1839 ft | 158 kts | 229° |
| 2026-05-06 03:04 | -34.97386 | 138.49817 | 2341 ft | 161 kts | 230° |
| 2026-05-06 03:05 | -34.98149 | 138.48772 | 2894 ft | 175 kts | 231° |
| 2026-05-06 03:05 | -34.98956 | 138.47553 | 3327 ft | 195 kts | 233° |
| 2026-05-06 03:05 | -34.99830 | 138.46186 | 3733 ft | 215 kts | 233° |
| 2026-05-06 03:05 | -35.00802 | 138.44666 | 4084 ft | 238 kts | 233° |
| 2026-05-06 03:06 | -35.01848 | 138.43053 | 4746 ft | 244 kts | 233° |
| 2026-05-06 03:06 | -35.02919 | 138.41421 | 5468 ft | 248 kts | 233° |
| 2026-05-06 03:06 | -35.03995 | 138.39744 | 6170 ft | 253 kts | 240° |
| 2026-05-06 03:06 | -35.04508 | 138.37718 | 6864 ft | 254 kts | 270° |
| 2026-05-06 03:07 | -35.04009 | 138.35651 | 7560 ft | 261 kts | 301° |
| 2026-05-06 03:07 | -35.02757 | 138.34013 | 8247 ft | 268 kts | 315° |
| 2026-05-06 03:07 | -35.01335 | 138.32507 | 8873 ft | 273 kts | 316° |
| 2026-05-06 03:07 | -34.99863 | 138.31015 | 9470 ft | 279 kts | 317° |
| 2026-05-06 03:08 | -34.98355 | 138.29540 | 10045 ft | 282 kts | 317° |
| 2026-05-06 03:08 | -34.96764 | 138.28062 | 10414 ft | 295 kts | 324° |
| 2026-05-06 03:08 | -34.94825 | 138.26977 | 10665 ft | 314 kts | 335° |
| 2026-05-06 03:08 | -34.92730 | 138.26093 | 11082 ft | 322 kts | 337° |
| 2026-05-06 03:09 | -34.90593 | 138.25222 | 11627 ft | 324 kts | 337° |
| 2026-05-06 03:09 | -34.88448 | 138.24342 | 12182 ft | 325 kts | 337° |
| 2026-05-06 03:09 | -34.86298 | 138.23443 | 12687 ft | 328 kts | 336° |
| 2026-05-06 03:09 | -34.84160 | 138.22526 | 13162 ft | 331 kts | 336° |
| 2026-05-06 03:10 | -34.81984 | 138.21570 | 13648 ft | 334 kts | 335° |
| 2026-05-06 03:10 | -34.79791 | 138.20588 | 14105 ft | 336 kts | 335° |
| 2026-05-06 03:10 | -34.77594 | 138.19584 | 14522 ft | 338 kts | 333° |
| 2026-05-06 03:10 | -34.75632 | 138.18073 | 14876 ft | 331 kts | 310° |
| 2026-05-06 03:11 | -34.74216 | 138.15889 | 15304 ft | 328 kts | 300° |
| 2026-05-06 03:11 | -34.72948 | 138.13573 | 15674 ft | 331 kts | 299° |
| 2026-05-06 03:11 | -34.71684 | 138.11213 | 16056 ft | 333 kts | 299° |
| 2026-05-06 03:11 | -34.70427 | 138.08837 | 16454 ft | 335 kts | 299° |
| 2026-05-06 03:12 | -34.69182 | 138.06480 | 16839 ft | 337 kts | 299° |
| 2026-05-06 03:12 | -34.67898 | 138.04077 | 17218 ft | 340 kts | 299° |
| 2026-05-06 03:12 | -34.66593 | 138.01671 | 17595 ft | 342 kts | 300° |
| 2026-05-06 03:12 | -34.65267 | 137.99257 | 17982 ft | 345 kts | 300° |
| 2026-05-06 03:13 | -34.63918 | 137.96829 | 18382 ft | 347 kts | 300° |
| 2026-05-06 03:13 | -34.62559 | 137.94397 | 18733 ft | 349 kts | 300° |
| 2026-05-06 03:13 | -34.61190 | 137.91954 | 19054 ft | 351 kts | 300° |
| 2026-05-06 03:13 | -34.59812 | 137.89498 | 19408 ft | 353 kts | 300° |
| 2026-05-06 03:14 | -34.58379 | 137.87063 | 19743 ft | 357 kts | 308° |
| 2026-05-06 03:14 | -34.56396 | 137.85180 | 20018 ft | 371 kts | 330° |
| 2026-05-06 03:14 | -34.53905 | 137.84223 | 20387 ft | 379 kts | 344° |
| 2026-05-06 03:14 | -34.51329 | 137.83665 | 20706 ft | 383 kts | 347° |
| 2026-05-06 03:15 | -34.48684 | 137.83162 | 21000 ft | 386 kts | 347° |
| 2026-05-06 03:15 | -34.46021 | 137.82676 | 21336 ft | 388 kts | 347° |
| 2026-05-06 03:15 | -34.43344 | 137.82182 | 21726 ft | 389 kts | 347° |
| 2026-05-06 03:15 | -34.40662 | 137.81659 | 22058 ft | 391 kts | 346° |
| 2026-05-06 03:16 | -34.37972 | 137.81101 | 22386 ft | 393 kts | 346° |
| 2026-05-06 03:16 | -34.35271 | 137.80516 | 22726 ft | 395 kts | 345° |
| 2026-05-06 03:16 | -34.32559 | 137.79913 | 23074 ft | 397 kts | 345° |
| 2026-05-06 03:16 | -34.29840 | 137.79303 | 23425 ft | 398 kts | 345° |
| 2026-05-06 03:17 | -34.27101 | 137.78687 | 23750 ft | 401 kts | 345° |
| 2026-05-06 03:17 | -34.24388 | 137.78080 | 24058 ft | 402 kts | 345° |
| 2026-05-06 03:17 | -34.21631 | 137.77466 | 24390 ft | 403 kts | 345° |
| 2026-05-06 03:17 | -34.18869 | 137.76854 | 24715 ft | 404 kts | 345° |
| 2026-05-06 03:18 | -34.16100 | 137.76243 | 25024 ft | 405 kts | 345° |
| 2026-05-06 03:18 | -34.13320 | 137.75632 | 25333 ft | 406 kts | 346° |
| 2026-05-06 03:18 | -34.10530 | 137.75020 | 25652 ft | 407 kts | 346° |
| 2026-05-06 03:18 | -34.07742 | 137.74410 | 25946 ft | 408 kts | 345° |
| 2026-05-06 03:19 | -34.04940 | 137.73803 | 26232 ft | 409 kts | 346° |
| 2026-05-06 03:19 | -34.02123 | 137.73190 | 26523 ft | 410 kts | 346° |
| 2026-05-06 03:19 | -33.99339 | 137.72583 | 26823 ft | 411 kts | 345° |
| 2026-05-06 03:19 | -33.96519 | 137.71967 | 27090 ft | 412 kts | 346° |
| 2026-05-06 03:20 | -33.90851 | 137.70729 | 27664 ft | 414 kts | 346° |
| 2026-05-06 03:20 | -33.88014 | 137.70110 | 27927 ft | 415 kts | 345° |
| 2026-05-06 03:20 | -33.85163 | 137.69488 | 28161 ft | 417 kts | 346° |
| 2026-05-06 03:21 | -33.82308 | 137.68867 | 28414 ft | 417 kts | 346° |
| 2026-05-06 03:21 | -33.79480 | 137.68253 | 28689 ft | 418 kts | 346° |
| 2026-05-06 03:21 | -33.76609 | 137.67630 | 28909 ft | 419 kts | 345° |
| 2026-05-06 03:21 | -33.73729 | 137.67006 | 29111 ft | 421 kts | 346° |
| 2026-05-06 03:22 | -33.70840 | 137.66381 | 29360 ft | 421 kts | 346° |
| 2026-05-06 03:22 | -33.67951 | 137.65756 | 29603 ft | 422 kts | 345° |
| 2026-05-06 03:22 | -33.65054 | 137.65128 | 29811 ft | 423 kts | 345° |
| 2026-05-06 03:22 | -33.62150 | 137.64501 | 30019 ft | 424 kts | 346° |
| 2026-05-06 03:23 | -33.59241 | 137.63874 | 30195 ft | 426 kts | 346° |
| 2026-05-06 03:23 | -33.56320 | 137.63246 | 30406 ft | 426 kts | 345° |
| 2026-05-06 03:23 | -33.53398 | 137.62617 | 30611 ft | 426 kts | 345° |
| 2026-05-06 03:23 | -33.50516 | 137.61998 | 30775 ft | 427 kts | 345° |
| 2026-05-06 03:24 | -33.47583 | 137.61366 | 30912 ft | 428 kts | 345° |
| 2026-05-06 03:24 | -33.44645 | 137.60733 | 31097 ft | 429 kts | 345° |
| 2026-05-06 03:24 | -33.41701 | 137.60100 | 31280 ft | 429 kts | 345° |
| 2026-05-06 03:24 | -33.38761 | 137.59468 | 31436 ft | 429 kts | 345° |
| 2026-05-06 03:25 | -33.35818 | 137.58835 | 31581 ft | 430 kts | 345° |
| 2026-05-06 03:25 | -33.32867 | 137.58201 | 31733 ft | 431 kts | 345° |
| 2026-05-06 03:25 | -33.29909 | 137.57566 | 31872 ft | 432 kts | 345° |
| 2026-05-06 03:25 | -33.26983 | 137.56940 | 32022 ft | 432 kts | 345° |
| 2026-05-06 03:26 | -33.24020 | 137.56306 | 32150 ft | 433 kts | 345° |
| 2026-05-06 03:26 | -33.21052 | 137.55669 | 32280 ft | 434 kts | 345° |
| 2026-05-06 03:26 | -33.18072 | 137.55030 | 32435 ft | 434 kts | 345° |
| 2026-05-06 03:26 | -33.15094 | 137.54392 | 32589 ft | 434 kts | 345° |
| 2026-05-06 03:27 | -33.12123 | 137.53759 | 32804 ft | 433 kts | 345° |
| 2026-05-06 03:27 | -33.09160 | 137.53128 | 33015 ft | 431 kts | 345° |
| 2026-05-06 03:27 | -33.06210 | 137.52497 | 33216 ft | 430 kts | 343° |
| 2026-05-06 03:27 | -33.03323 | 137.51637 | 33405 ft | 425 kts | 338° |
| 2026-05-06 03:28 | -33.00513 | 137.50569 | 33599 ft | 423 kts | 336° |
| 2026-05-06 03:28 | -32.97730 | 137.49443 | 33757 ft | 422 kts | 336° |
| 2026-05-06 03:28 | -32.94953 | 137.48315 | 33911 ft | 422 kts | 336° |
| 2026-05-06 03:28 | -32.92168 | 137.47200 | 34080 ft | 421 kts | 336° |
| 2026-05-06 03:29 | -32.89388 | 137.46110 | 34248 ft | 421 kts | 337° |
| 2026-05-06 03:29 | -32.86603 | 137.45038 | 34420 ft | 419 kts | 337° |
| 2026-05-06 03:29 | -32.83828 | 137.43984 | 34560 ft | 419 kts | 337° |
| 2026-05-06 03:29 | -32.81053 | 137.42936 | 34682 ft | 418 kts | 337° |
| 2026-05-06 03:30 | -32.78277 | 137.41889 | 34798 ft | 418 kts | 337° |
| 2026-05-06 03:30 | -32.75537 | 137.40855 | 34895 ft | 418 kts | 337° |
| 2026-05-06 03:30 | -32.72763 | 137.39808 | 35017 ft | 418 kts | 337° |
| 2026-05-06 03:30 | -32.69997 | 137.38762 | 35157 ft | 417 kts | 337° |
| 2026-05-06 03:31 | -32.67234 | 137.37718 | 35301 ft | 416 kts | 337° |
| 2026-05-06 03:31 | -32.64477 | 137.36674 | 35388 ft | 416 kts | 337° |
| 2026-05-06 03:31 | -32.58962 | 137.34588 | 35594 ft | 416 kts | 337° |
| 2026-05-06 03:32 | -32.56203 | 137.33546 | 35711 ft | 415 kts | 337° |
| 2026-05-06 03:32 | -32.53449 | 137.32507 | 35819 ft | 414 kts | 337° |
| 2026-05-06 03:32 | -32.50705 | 137.31472 | 35939 ft | 414 kts | 337° |
| 2026-05-06 03:32 | -32.47965 | 137.30439 | 36089 ft | 412 kts | 337° |
| 2026-05-06 03:33 | -32.42494 | 137.28385 | 36233 ft | 413 kts | 337° |
| 2026-05-06 03:33 | -32.37028 | 137.26331 | 36265 ft | 416 kts | 337° |
| 2026-05-06 03:34 | -32.31469 | 137.24239 | 36268 ft | 420 kts | 337° |
| 2026-05-06 03:34 | -32.25885 | 137.22142 | 36270 ft | 419 kts | 337° |
| 2026-05-06 03:35 | -32.20340 | 137.20066 | 36270 ft | 416 kts | 337° |
| 2026-05-06 03:35 | -32.14816 | 137.17995 | 36274 ft | 416 kts | 337° |
| 2026-05-06 03:36 | -32.09280 | 137.15919 | 36269 ft | 418 kts | 337° |
| 2026-05-06 03:36 | -32.03730 | 137.13847 | 36270 ft | 419 kts | 337° |
| 2026-05-06 03:37 | -31.98198 | 137.11788 | 36272 ft | 419 kts | 337° |
| 2026-05-06 03:37 | -31.92650 | 137.09725 | 36272 ft | 417 kts | 337° |
| 2026-05-06 03:38 | -31.87116 | 137.07665 | 36272 ft | 417 kts | 337° |
| 2026-05-06 03:38 | -31.81574 | 137.05600 | 36272 ft | 418 kts | 337° |
| 2026-05-06 03:39 | -31.76022 | 137.03538 | 36273 ft | 418 kts | 337° |
| 2026-05-06 03:39 | -31.70468 | 137.01478 | 36277 ft | 419 kts | 337° |
| 2026-05-06 03:40 | -31.64940 | 136.99432 | 36271 ft | 419 kts | 337° |
| 2026-05-06 03:40 | -31.59372 | 136.97378 | 36273 ft | 419 kts | 338° |
| 2026-05-06 03:41 | -31.53813 | 136.95328 | 36272 ft | 418 kts | 337° |
| 2026-05-06 03:41 | -31.48258 | 136.93277 | 36275 ft | 417 kts | 337° |
| 2026-05-06 03:42 | -31.42711 | 136.91232 | 36278 ft | 417 kts | 338° |
| 2026-05-06 03:42 | -31.37158 | 136.89186 | 36279 ft | 418 kts | 337° |
| 2026-05-06 03:43 | -31.31620 | 136.87150 | 36281 ft | 419 kts | 338° |
| 2026-05-06 03:43 | -31.26050 | 136.85104 | 36284 ft | 419 kts | 337° |
| 2026-05-06 03:44 | -31.20501 | 136.83059 | 36284 ft | 420 kts | 338° |
| 2026-05-06 03:44 | -31.14928 | 136.81014 | 36283 ft | 419 kts | 338° |
| 2026-05-06 03:45 | -31.09409 | 136.78912 | 36283 ft | 417 kts | 336° |
| 2026-05-06 03:45 | -31.03918 | 136.76713 | 36283 ft | 418 kts | 336° |
| 2026-05-06 03:46 | -30.98417 | 136.74506 | 36281 ft | 418 kts | 336° |
| 2026-05-06 03:46 | -30.92914 | 136.72319 | 36272 ft | 418 kts | 336° |
| 2026-05-06 03:47 | -30.87439 | 136.70158 | 36275 ft | 418 kts | 336° |
| 2026-05-06 03:47 | -30.81924 | 136.67984 | 36267 ft | 418 kts | 336° |
| 2026-05-06 03:48 | -30.76404 | 136.65809 | 36263 ft | 418 kts | 336° |
| 2026-05-06 03:48 | -30.70879 | 136.63636 | 36267 ft | 418 kts | 336° |
| 2026-05-06 03:49 | -30.65393 | 136.61484 | 36263 ft | 418 kts | 336° |
| 2026-05-06 03:49 | -30.59869 | 136.59316 | 36260 ft | 419 kts | 336° |
| 2026-05-06 03:50 | -30.54348 | 136.57151 | 36259 ft | 419 kts | 336° |
| 2026-05-06 03:50 | -30.48817 | 136.54982 | 36260 ft | 419 kts | 336° |
| 2026-05-06 03:51 | -30.43325 | 136.52831 | 36263 ft | 419 kts | 336° |
| 2026-05-06 03:51 | -30.37792 | 136.50669 | 36263 ft | 419 kts | 336° |
| 2026-05-06 03:52 | -30.33184 | 136.48870 | 36264 ft | 419 kts | 336° |
| 2026-05-06 03:52 | -30.26741 | 136.46364 | 36261 ft | 420 kts | 336° |
| 2026-05-06 03:53 | -30.22101 | 136.44560 | 36258 ft | 420 kts | 336° |
| 2026-05-06 03:53 | -30.16564 | 136.42405 | 36260 ft | 420 kts | 336° |
| 2026-05-06 03:54 | -30.11056 | 136.40264 | 36260 ft | 420 kts | 336° |
| 2026-05-06 03:54 | -30.05515 | 136.38112 | 36262 ft | 420 kts | 336° |
| 2026-05-06 03:55 | -29.99975 | 136.35964 | 36258 ft | 420 kts | 336° |
| 2026-05-06 03:55 | -29.94428 | 136.33816 | 36262 ft | 420 kts | 336° |
| 2026-05-06 03:56 | -29.88886 | 136.31666 | 36257 ft | 420 kts | 336° |
| 2026-05-06 03:56 | -29.83344 | 136.29522 | 36256 ft | 420 kts | 336° |
| 2026-05-06 03:57 | -29.77797 | 136.27382 | 36262 ft | 420 kts | 336° |
| 2026-05-06 03:57 | -29.72253 | 136.25247 | 36260 ft | 420 kts | 336° |
| 2026-05-06 03:58 | -29.66707 | 136.23120 | 36257 ft | 420 kts | 337° |
| 2026-05-06 03:58 | -29.61153 | 136.21021 | 36258 ft | 420 kts | 337° |
| 2026-05-06 03:59 | -29.55649 | 136.18932 | 36256 ft | 418 kts | 337° |
| 2026-05-06 03:59 | -29.50131 | 136.16827 | 36257 ft | 418 kts | 336° |
| 2026-05-06 04:00 | -29.44602 | 136.14714 | 36254 ft | 419 kts | 336° |
| 2026-05-06 04:00 | -29.39062 | 136.12603 | 36259 ft | 419 kts | 336° |
| 2026-05-06 04:01 | -29.33554 | 136.10509 | 36260 ft | 420 kts | 337° |
| 2026-05-06 04:01 | -29.28001 | 136.08400 | 36254 ft | 420 kts | 336° |
| 2026-05-06 04:02 | -29.22445 | 136.06300 | 36251 ft | 419 kts | 337° |
| 2026-05-06 04:02 | -29.16907 | 136.04207 | 36255 ft | 418 kts | 336° |
| 2026-05-06 04:03 | -29.11388 | 136.02120 | 36256 ft | 418 kts | 337° |
| 2026-05-06 04:03 | -29.05881 | 136.00038 | 36254 ft | 419 kts | 336° |
| 2026-05-06 04:04 | -29.00325 | 135.97940 | 36248 ft | 420 kts | 337° |
| 2026-05-06 04:04 | -28.94766 | 135.95845 | 36256 ft | 421 kts | 337° |
| 2026-05-06 04:05 | -28.89203 | 135.93750 | 36254 ft | 421 kts | 337° |
| 2026-05-06 04:05 | -28.83643 | 135.91665 | 36255 ft | 420 kts | 337° |
| 2026-05-06 04:06 | -28.78097 | 135.89588 | 36251 ft | 419 kts | 336° |
| 2026-05-06 04:06 | -28.72589 | 135.87522 | 36255 ft | 420 kts | 336° |
| 2026-05-06 04:07 | -28.67036 | 135.85441 | 36251 ft | 420 kts | 336° |
| 2026-05-06 04:07 | -28.61478 | 135.83359 | 36252 ft | 421 kts | 337° |
| 2026-05-06 04:08 | -28.55905 | 135.81275 | 36252 ft | 421 kts | 337° |
| 2026-05-06 04:08 | -28.50336 | 135.79196 | 36251 ft | 422 kts | 337° |
| 2026-05-06 04:09 | -28.44785 | 135.77130 | 36251 ft | 422 kts | 337° |
| 2026-05-06 04:09 | -28.39211 | 135.75060 | 36251 ft | 420 kts | 337° |
| 2026-05-06 04:10 | -28.33654 | 135.72994 | 36252 ft | 419 kts | 337° |
| 2026-05-06 04:10 | -28.28090 | 135.70924 | 36251 ft | 421 kts | 337° |
| 2026-05-06 04:11 | -28.22556 | 135.68868 | 36248 ft | 421 kts | 337° |
| 2026-05-06 04:11 | -28.16984 | 135.66802 | 36252 ft | 421 kts | 337° |
| 2026-05-06 04:12 | -28.11411 | 135.64737 | 36251 ft | 421 kts | 337° |
| 2026-05-06 04:12 | -28.05829 | 135.62675 | 36252 ft | 422 kts | 337° |
| 2026-05-06 04:13 | -28.00247 | 135.60617 | 36248 ft | 422 kts | 337° |
| 2026-05-06 04:13 | -27.94664 | 135.58558 | 36248 ft | 422 kts | 337° |
| 2026-05-06 04:14 | -27.89110 | 135.56509 | 36250 ft | 422 kts | 337° |
| 2026-05-06 04:14 | -27.83529 | 135.54453 | 36251 ft | 422 kts | 337° |
| 2026-05-06 04:15 | -27.77940 | 135.52397 | 36248 ft | 422 kts | 337° |
| 2026-05-06 04:15 | -27.72347 | 135.50341 | 36252 ft | 422 kts | 337° |
| 2026-05-06 04:16 | -27.66750 | 135.48280 | 36245 ft | 422 kts | 337° |
| 2026-05-06 04:16 | -27.61163 | 135.46213 | 36246 ft | 423 kts | 337° |
| 2026-05-06 04:17 | -27.55591 | 135.44165 | 36247 ft | 423 kts | 337° |
| 2026-05-06 04:17 | -27.50063 | 135.41903 | 36247 ft | 421 kts | 334° |
| 2026-05-06 04:18 | -27.44606 | 135.39488 | 36241 ft | 421 kts | 334° |
| 2026-05-06 04:18 | -27.39199 | 135.37103 | 36244 ft | 419 kts | 334° |
| 2026-05-06 04:19 | -27.33757 | 135.34737 | 36247 ft | 419 kts | 334° |
| 2026-05-06 04:19 | -27.28290 | 135.32381 | 36249 ft | 420 kts | 334° |
| 2026-05-06 04:20 | -27.22824 | 135.30028 | 36240 ft | 420 kts | 334° |
| 2026-05-06 04:20 | -27.17388 | 135.27687 | 36239 ft | 420 kts | 334° |
| 2026-05-06 04:21 | -27.11920 | 135.25333 | 36242 ft | 421 kts | 334° |
| 2026-05-06 04:21 | -27.06447 | 135.22981 | 36238 ft | 421 kts | 334° |
| 2026-05-06 04:22 | -27.01013 | 135.20647 | 36244 ft | 421 kts | 334° |
| 2026-05-06 04:23 | -26.92806 | 135.17125 | 36238 ft | 421 kts | 334° |
| 2026-05-06 04:23 | -26.87328 | 135.14799 | 36235 ft | 421 kts | 334° |
| 2026-05-06 04:24 | -26.81845 | 135.12482 | 36238 ft | 421 kts | 334° |
| 2026-05-06 04:24 | -26.76365 | 135.10163 | 36235 ft | 421 kts | 334° |
| 2026-05-06 04:25 | -26.70915 | 135.07854 | 36236 ft | 421 kts | 334° |
| 2026-05-06 04:25 | -26.65432 | 135.05532 | 36237 ft | 421 kts | 334° |
| 2026-05-06 04:26 | -26.59945 | 135.03211 | 36233 ft | 421 kts | 334° |
| 2026-05-06 04:26 | -26.54460 | 135.00896 | 36232 ft | 421 kts | 334° |
| 2026-05-06 04:27 | -26.48978 | 134.98586 | 36233 ft | 421 kts | 334° |
| 2026-05-06 04:27 | -26.43491 | 134.96280 | 36231 ft | 421 kts | 334° |
| 2026-05-06 04:28 | -26.38012 | 134.93977 | 36228 ft | 420 kts | 334° |
| 2026-05-06 04:28 | -26.32585 | 134.91696 | 36227 ft | 418 kts | 334° |
| 2026-05-06 04:29 | -26.27138 | 134.89406 | 36230 ft | 418 kts | 334° |
| 2026-05-06 04:29 | -26.21688 | 134.87118 | 36229 ft | 419 kts | 334° |
| 2026-05-06 04:30 | -26.16230 | 134.84831 | 36229 ft | 419 kts | 334° |
| 2026-05-06 04:30 | -26.10766 | 134.82545 | 36226 ft | 419 kts | 334° |
| 2026-05-06 04:31 | -26.05298 | 134.80264 | 36226 ft | 420 kts | 334° |
| 2026-05-06 04:31 | -25.99831 | 134.77984 | 36222 ft | 418 kts | 334° |
| 2026-05-06 04:32 | -25.94394 | 134.75716 | 36225 ft | 416 kts | 334° |
| 2026-05-06 04:32 | -25.89001 | 134.73466 | 36221 ft | 417 kts | 333° |
| 2026-05-06 04:33 | -25.83570 | 134.71202 | 36222 ft | 417 kts | 334° |
| 2026-05-06 04:33 | -25.78130 | 134.68936 | 36224 ft | 417 kts | 333° |
| 2026-05-06 04:34 | -25.72689 | 134.66677 | 36222 ft | 417 kts | 333° |
| 2026-05-06 04:34 | -25.67248 | 134.64424 | 36218 ft | 417 kts | 333° |
| 2026-05-06 04:35 | -25.61804 | 134.62169 | 36218 ft | 416 kts | 333° |
| 2026-05-06 04:35 | -25.56390 | 134.59926 | 36222 ft | 414 kts | 333° |
| 2026-05-06 04:36 | -25.51024 | 134.57703 | 36222 ft | 414 kts | 333° |
| 2026-05-06 04:36 | -25.45610 | 134.55461 | 36219 ft | 415 kts | 333° |
| 2026-05-06 04:37 | -25.40200 | 134.53225 | 36218 ft | 415 kts | 333° |
| 2026-05-06 04:37 | -25.34786 | 134.50990 | 36219 ft | 415 kts | 333° |
| 2026-05-06 04:38 | -25.29390 | 134.48761 | 36219 ft | 415 kts | 333° |
| 2026-05-06 04:38 | -25.24008 | 134.46541 | 36217 ft | 415 kts | 333° |
| 2026-05-06 04:39 | -25.18585 | 134.44309 | 36214 ft | 416 kts | 333° |
| 2026-05-06 04:39 | -25.13156 | 134.42077 | 36212 ft | 416 kts | 332° |
| 2026-05-06 04:40 | -25.08641 | 134.40223 | 36214 ft | 416 kts | 332° |
| 2026-05-06 04:40 | -25.02436 | 134.37442 | 36215 ft | 408 kts | 324° |
| 2026-05-06 04:41 | -24.98522 | 134.34853 | 36213 ft | 405 kts | 321° |
| 2026-05-06 04:41 | -24.93785 | 134.31559 | 36207 ft | 404 kts | 321° |
| 2026-05-06 04:42 | -24.88991 | 134.28283 | 36126 ft | 407 kts | 322° |
| 2026-05-06 04:42 | -24.86548 | 134.26637 | 35692 ft | 415 kts | 322° |
| 2026-05-06 04:42 | -24.84067 | 134.24981 | 35200 ft | 418 kts | 322° |
| 2026-05-06 04:42 | -24.81576 | 134.23329 | 34632 ft | 418 kts | 323° |
| 2026-05-06 04:43 | -24.79114 | 134.21702 | 33978 ft | 418 kts | 323° |
| 2026-05-06 04:43 | -24.76603 | 134.20039 | 33229 ft | 420 kts | 323° |
| 2026-05-06 04:43 | -24.74092 | 134.18372 | 32508 ft | 423 kts | 323° |
| 2026-05-06 04:43 | -24.71566 | 134.16696 | 31841 ft | 422 kts | 324° |
| 2026-05-06 04:44 | -24.69064 | 134.15039 | 31190 ft | 418 kts | 324° |
| 2026-05-06 04:44 | -24.66581 | 134.13395 | 30537 ft | 414 kts | 324° |
| 2026-05-06 04:44 | -24.64120 | 134.11770 | 29832 ft | 411 kts | 325° |
| 2026-05-06 04:44 | -24.61710 | 134.10181 | 29145 ft | 407 kts | 325° |
| 2026-05-06 04:45 | -24.59293 | 134.08589 | 28498 ft | 402 kts | 325° |
| 2026-05-06 04:45 | -24.56899 | 134.07010 | 27870 ft | 399 kts | 325° |
| 2026-05-06 04:45 | -24.54522 | 134.05439 | 27241 ft | 397 kts | 325° |
| 2026-05-06 04:45 | -24.52163 | 134.03878 | 26664 ft | 394 kts | 325° |
| 2026-05-06 04:46 | -24.49825 | 134.02332 | 26061 ft | 392 kts | 325° |
| 2026-05-06 04:46 | -24.47493 | 134.00789 | 25439 ft | 390 kts | 325° |
| 2026-05-06 04:46 | -24.45180 | 133.99259 | 24798 ft | 387 kts | 326° |
| 2026-05-06 04:46 | -24.42883 | 133.97741 | 24161 ft | 383 kts | 326° |
| 2026-05-06 04:47 | -24.40636 | 133.96257 | 23500 ft | 379 kts | 326° |
| 2026-05-06 04:47 | -24.38359 | 133.94753 | 22816 ft | 375 kts | 326° |
| 2026-05-06 04:47 | -24.36159 | 133.93303 | 22192 ft | 372 kts | 326° |
| 2026-05-06 04:47 | -24.33947 | 133.91844 | 21611 ft | 369 kts | 326° |
| 2026-05-06 04:48 | -24.31750 | 133.90396 | 21041 ft | 367 kts | 326° |
| 2026-05-06 04:48 | -24.29559 | 133.88955 | 20476 ft | 365 kts | 327° |
| 2026-05-06 04:48 | -24.27385 | 133.87527 | 19889 ft | 363 kts | 327° |
| 2026-05-06 04:48 | -24.25249 | 133.86124 | 19345 ft | 362 kts | 327° |
| 2026-05-06 04:49 | -24.23097 | 133.84711 | 18759 ft | 359 kts | 327° |
| 2026-05-06 04:49 | -24.20969 | 133.83315 | 18128 ft | 355 kts | 327° |
| 2026-05-06 04:49 | -24.18863 | 133.81933 | 17495 ft | 350 kts | 327° |
| 2026-05-06 04:49 | -24.16793 | 133.80575 | 16932 ft | 345 kts | 327° |
| 2026-05-06 04:50 | -24.14743 | 133.79229 | 16392 ft | 342 kts | 327° |
| 2026-05-06 04:50 | -24.12709 | 133.77893 | 15875 ft | 340 kts | 327° |
| 2026-05-06 04:50 | -24.10685 | 133.76563 | 15258 ft | 340 kts | 327° |
| 2026-05-06 04:50 | -24.08657 | 133.75233 | 14636 ft | 337 kts | 327° |
| 2026-05-06 04:51 | -24.06658 | 133.73921 | 14053 ft | 333 kts | 327° |
| 2026-05-06 04:51 | -24.04680 | 133.72622 | 13445 ft | 330 kts | 327° |
| 2026-05-06 04:51 | -24.02746 | 133.71354 | 12904 ft | 326 kts | 327° |
| 2026-05-06 04:51 | -24.00801 | 133.70081 | 12385 ft | 323 kts | 327° |
| 2026-05-06 04:52 | -23.98875 | 133.68821 | 11892 ft | 322 kts | 327° |
| 2026-05-06 04:52 | -23.96956 | 133.67561 | 11403 ft | 321 kts | 327° |
| 2026-05-06 04:52 | -23.95044 | 133.66294 | 10919 ft | 321 kts | 327° |
| 2026-05-06 04:52 | -23.93163 | 133.65011 | 10572 ft | 311 kts | 326° |
| 2026-05-06 04:53 | -23.91385 | 133.63805 | 10464 ft | 291 kts | 328° |
| 2026-05-06 04:53 | -23.89648 | 133.62773 | 10388 ft | 277 kts | 333° |
| 2026-05-06 04:53 | -23.87902 | 133.61957 | 10321 ft | 271 kts | 338° |
| 2026-05-06 04:53 | -23.86078 | 133.61312 | 10261 ft | 278 kts | 343° |
| 2026-05-06 04:54 | -23.84176 | 133.60827 | 10195 ft | 282 kts | 348° |
| 2026-05-06 04:54 | -23.82256 | 133.60514 | 10127 ft | 283 kts | 352° |
| 2026-05-06 04:54 | -23.80269 | 133.60364 | 9965 ft | 286 kts | 356° |
| 2026-05-06 04:54 | -23.78272 | 133.60382 | 9582 ft | 290 kts | 2° |
| 2026-05-06 04:55 | -23.76239 | 133.60574 | 8964 ft | 294 kts | 7° |
| 2026-05-06 04:55 | -23.74217 | 133.60948 | 8443 ft | 295 kts | 12° |
| 2026-05-06 04:55 | -23.72223 | 133.61520 | 7790 ft | 300 kts | 19° |
| 2026-05-06 04:55 | -23.70275 | 133.62326 | 7294 ft | 296 kts | 25° |
| 2026-05-06 04:56 | -23.68615 | 133.63538 | 6913 ft | 282 kts | 51° |
| 2026-05-06 04:56 | -23.67711 | 133.65320 | 6541 ft | 259 kts | 79° |
| 2026-05-06 04:56 | -23.67728 | 133.67175 | 6103 ft | 244 kts | 110° |
| 2026-05-06 04:56 | -23.68534 | 133.68761 | 5787 ft | 235 kts | 127° |
| 2026-05-06 04:57 | -23.69471 | 133.70188 | 5630 ft | 228 kts | 126° |
| 2026-05-06 04:57 | -23.70341 | 133.71564 | 5533 ft | 209 kts | 125° |
| 2026-05-06 04:57 | -23.71142 | 133.72832 | 5192 ft | 200 kts | 126° |
| 2026-05-06 04:57 | -23.71895 | 133.74047 | 4903 ft | 187 kts | 123° |
| 2026-05-06 04:58 | -23.72545 | 133.75220 | 4704 ft | 173 kts | 122° |
| 2026-05-06 04:58 | -23.73149 | 133.76320 | 4577 ft | 164 kts | 122° |
| 2026-05-06 04:58 | -23.73725 | 133.77402 | 4350 ft | 163 kts | 121° |
| 2026-05-06 04:58 | -23.74271 | 133.78419 | 4098 ft | 152 kts | 122° |
| 2026-05-06 04:59 | -23.74787 | 133.79389 | 3850 ft | 144 kts | 122° |
| 2026-05-06 04:59 | -23.75277 | 133.80306 | 3650 ft | 136 kts | 122° |
| 2026-05-06 04:59 | -23.75752 | 133.81189 | 3464 ft | 133 kts | 122° |
| 2026-05-06 04:59 | -23.76212 | 133.82062 | 3320 ft | 130 kts | 122° |
| 2026-05-06 05:00 | -23.76670 | 133.82910 | 3180 ft | 129 kts | 122° |
| 2026-05-06 05:00 | -23.77124 | 133.83760 | 3012 ft | 130 kts | 122° |
| 2026-05-06 05:00 | -23.77577 | 133.84610 | 2831 ft | 128 kts | 122° |
| 2026-05-06 05:00 | -23.78017 | 133.85452 | 2692 ft | 127 kts | 121° |
| 2026-05-06 05:01 | -23.78460 | 133.86288 | 2508 ft | 128 kts | 121° |
| 2026-05-06 05:01 | -23.78895 | 133.87162 | 2303 ft | 132 kts | 120° |
| 2026-05-06 05:01 | -23.79373 | 133.88028 | 2067 ft | 136 kts | 123° |
| 2026-05-06 05:01 | -23.79857 | 133.88905 | 1880 ft | 132 kts | 122° |
| 2026-05-06 05:02 | -23.80320 | 133.89731 | 1791 ft | 120 kts | 122° |
| 2026-05-06 05:02 | -23.80694 | 133.90439 | 1784 ft | 87 kts | 119° |
| 2026-05-06 05:02 | -23.80888 | 133.90803 | 1780 ft | 31 kts | 121° |
| 2026-05-06 05:02 | -23.80994 | 133.90993 | 1780 ft | 28 kts | 121° |
| 2026-05-06 05:03 | -23.81046 | 133.91086 | 1780 ft | 5 kts | 121° |
| 2026-05-06 05:03 | -23.81064 | 133.91118 | 1782 ft | 6 kts | 121° |
| 2026-05-06 05:03 | -23.81097 | 133.91178 | 1780 ft | 13 kts | 121° |
| 2026-05-06 05:03 | -23.81139 | 133.91265 | 1780 ft | 10 kts | 115° |
| 2026-05-06 05:04 | -23.81160 | 133.91349 | 1777 ft | 10 kts | 99° |
| 2026-05-06 05:04 | -23.81179 | 133.91400 | 1779 ft | 6 kts | 148° |
| 2026-05-06 05:04 | -23.81217 | 133.91378 | 1777 ft | 9 kts | 256° |
| 2026-05-06 05:04 | -23.81159 | 133.91300 | 1778 ft | 19 kts | 306° |
| 2026-05-06 05:05 | -23.81076 | 133.91145 | 1780 ft | 28 kts | 301° |
| 2026-05-06 05:05 | -23.80981 | 133.90970 | 1779 ft | 25 kts | 301° |
| 2026-05-06 05:05 | -23.80892 | 133.90806 | 1780 ft | 25 kts | 301° |
| 2026-05-06 05:05 | -23.80801 | 133.90637 | 1781 ft | 26 kts | 300° |
| 2026-05-06 05:06 | -23.80711 | 133.90470 | 1783 ft | 26 kts | 301° |
| 2026-05-06 05:06 | -23.80625 | 133.90314 | 1784 ft | 19 kts | 301° |
| 2026-05-06 05:06 | -23.80567 | 133.90209 | 1787 ft | 16 kts | 301° |
| 2026-05-06 05:06 | -23.80508 | 133.90101 | 1788 ft | 17 kts | 301° |
| 2026-05-06 05:07 | -23.80464 | 133.90032 | 1789 ft | 7 kts | 325° |
| 2026-05-06 05:07 | -23.80418 | 133.90033 | 1789 ft | 7 kts | 18° |
| 2026-05-06 05:07 | -23.80381 | 133.90057 | 1789 ft | 0 kts | 36° |
| 2026-05-06 05:08 | -23.80376 | 133.90060 | 1788 ft | 2 kts | 36° |
| 2026-05-06 05:08 | -23.80361 | 133.90073 | 1789 ft | 4 kts | 36° |
| 2026-05-06 05:09 | -23.80340 | 133.90096 | 1789 ft | 5 kts | 63° |
| 2026-05-06 05:09 | -23.80328 | 133.90137 | 1787 ft | 7 kts | 66° |
| 2026-05-06 05:09 | -23.80306 | 133.90181 | 1787 ft | 3 kts | 60° |
| 2026-05-06 05:09 | -23.80301 | 133.90191 | 1788 ft | 0 kts | 60° |